Renee' T. Whatley — WDD5243 — position and weather

sailwx.info

Track history (hours):
 
Tides and Currents Weather Stations Pressure Air Temp Water Temp Dewpoint Dewpoint Depression Visibility Wind Speed Wind Dir Waves Ship Positions

Renee' T. Whatley

Owner: Terral RiverService, Inc., Lake Providence, LA. More information available from US FCC via Universal Licensing System and Coast Guard Vessel Documentation Center.

Last reported at 2015-Jul-27 02:14 UTC. Time now 2015-Jul-28 10:25 UTC.
Position N 29°22' W 094°48'.

Length 11 m.

Type: Tug. MMSI: 367155550.

Date/timePositionNaut miles runAvg speedWind from/ knotsBaromVisibWave heightAir tempDewpointWater temp
2015-Jul-27 02:14N 29°22' W 094°48'5 7.4
2015-Jul-27 01:32N 29°27' W 094°51'7 7.3
2015-Jul-27 00:33N 29°33' W 094°55'7 6.7
2015-Jul-26 23:33N 29°39' W 094°58'6 6.0
2015-Jul-26 22:33N 29°44' W 095°03'3 3.5
2015-Jul-26 21:33N 29°44' W 095°07'6 4.1
2015-Jul-26 20:06N 29°44' W 095°13'3 0.1
2015-Jul-25 12:23N 29°45' W 095°10'3 3.7
2015-Jul-25 11:30N 29°45' W 095°06'3 2.9
2015-Jul-25 10:33N 29°44' W 095°03'3 3.3
2015-Jul-25 09:33N 29°42' W 095°00'6 5.7
2015-Jul-25 08:33N 29°37' W 094°57'7 6.5
2015-Jul-25 07:33N 29°31' W 094°53'  
Track history (hours):
 
Tides and Currents Weather Stations Pressure Air Temp Water Temp Dewpoint Dewpoint Depression Visibility Wind Speed Wind Dir Waves Ship Positions

Renee' T. Whatley

Owner: Terral RiverService, Inc., Lake Providence, LA. More information available from US FCC via Universal Licensing System and Coast Guard Vessel Documentation Center.

Last reported at 2015-Jul-27 02:14 UTC. Time now 2015-Jul-28 10:25 UTC.
Position N 29°22' W 094°48'.

Length 11 m.

Type: Tug. MMSI: 367155550.

Date/timePositionNaut miles runAvg speedWind from/ knotsBaromVisibWave heightAir tempDewpointWater temp
2015-Jul-27 02:14N 29°22' W 094°48'5 7.4
2015-Jul-27 01:32N 29°27' W 094°51'7 7.3
2015-Jul-27 00:33N 29°33' W 094°55'7 6.7
2015-Jul-26 23:33N 29°39' W 094°58'6 6.0
2015-Jul-26 22:33N 29°44' W 095°03'3 3.5
2015-Jul-26 21:33N 29°44' W 095°07'6 4.1
2015-Jul-26 20:06N 29°44' W 095°13'3 0.1
2015-Jul-25 12:23N 29°45' W 095°10'3 3.7
2015-Jul-25 11:30N 29°45' W 095°06'3 2.9
2015-Jul-25 10:33N 29°44' W 095°03'3 3.3
2015-Jul-25 09:33N 29°42' W 095°00'6 5.7
2015-Jul-25 08:33N 29°37' W 094°57'7 6.5
2015-Jul-25 07:33N 29°31' W 094°53'  

Dump ship's entire track history